Portada
METAR-TAF:

METAR-TAF

Aeroports :

Campina Grande, Paraíba, Brasil

latitud: 07-13S, longitud: 035-53W, altitud: 548 m

Observació

L'informe es va fer fa 1 hora i 1 minuts, a les 01:00 UTC
Vent 4 kt del Est
Temperatura 19°C
Humitat 88%
Pressió 1018 hPa
Visibilitat 10 km o més
sense núvols per sota de 1500 mi sense presència de cumulonimbus.

METAR: SBKG 160100Z 10004KT CAVOK 19/17 Q1018

Hora: 23:01 (02:01 UTC)

Pronòstic

L'informe es va fer fa 4 hores i 1 minuts, a les 22:00 UTC
Pronòstic vàlid del 16 a les 00 UTC al 16 a les 12 UTC
Vent 6 kt del Est
Visibilitat 10 km o més
Escasses núvols a una alçada de 1000 ft
Evolucionant progressivament
l' 16 a les 05 UTC al 16 a les 07 UTC
Cel ennuvolat a una alçada de 1000 ft

TAF: SBKG 152200Z 1600/1612 09006KT 9999 FEW010 TN20/1605Z TX22/1611Z BECMG 1605/1607 BKN010 RMK PCQ

Observacions i pronòstics meteorològics de més de 4000 aeroports (METAR i TAF).

Les estacions disponibles són els punts grocs i vermells al mapa.

Posi el ratolí al punt desitjat per veure el nom de l'estació.

Feu clic per veure les observacions i els pronòstics meteorològics.

Per canviar el mapa: feu clic els botons verds amb una creu de color negre per apropar; al botó verd amb un guió per allunyar la imatge; o en les fletxes verdes per a mapes adjacents.


METAR-TAF: